Colfax, Washington
Current Conditions -  °F | °C
As of 2:53 PM on Saturday 25 Oct 2014 (Local Time) from KPUW Reporting Station
Few Clouds Few Clouds  
Wind Chill: 65°   Ceiling: Unl
Heat Index: 65°   Visibility: 10mi
Dew Point: 47°   Wind: 7mph
Humidity: 52%   Direction: 110°ESE
Pressure: 29.6"   Gusts: NA
Location:  46.88°N, 117.36°W
Report Text: KPUW 252153Z AUTO 11006KT 10SM FEW120 18/08 A2960 RMK AO2 SLP020 T01830083
Loading
Personal Weather Stations






























Interactive Weather Map New forecast layout! Learn more

10-Day Weather Forecast

Advertisements
Track Severe Weather on mobile